createdAt,value
2023-05-17T00:01:48.660Z,11.20
2023-05-17T00:06:44.780Z,11.50
2023-05-17T00:09:11.942Z,11.40
2023-05-17T00:11:39.057Z,11.30
2023-05-17T00:16:34.272Z,11.50
2023-05-17T00:19:01.654Z,11.10
2023-05-17T00:21:28.701Z,10.20
2023-05-17T00:23:55.701Z,11.00
2023-05-17T00:26:22.934Z,12.00
2023-05-17T00:28:49.945Z,10.90
2023-05-17T00:31:16.943Z,10.90
2023-05-17T00:33:44.584Z,10.90
2023-05-17T00:36:11.763Z,11.00
2023-05-17T00:38:38.806Z,11.00
2023-05-17T00:41:06.275Z,11.20
2023-05-17T00:43:33.305Z,10.80
2023-05-17T00:46:00.347Z,11.20
2023-05-17T00:48:29.313Z,10.80
2023-05-17T00:50:56.994Z,10.90
2023-05-17T00:53:24.342Z,10.90
2023-05-17T01:00:47.341Z,10.80
2023-05-17T01:05:42.359Z,10.90
2023-05-17T01:08:09.358Z,11.00
2023-05-17T01:10:54.732Z,10.70
2023-05-17T01:14:08.121Z,10.70
2023-05-17T01:16:50.724Z,11.10
2023-05-17T01:20:06.417Z,10.80
2023-05-17T01:23:13.595Z,10.70
2023-05-17T01:26:10.972Z,10.50
2023-05-17T01:28:39.117Z,10.70
2023-05-17T01:31:07.887Z,10.70
2023-05-17T01:33:38.839Z,10.50
2023-05-17T01:36:08.660Z,10.60
2023-05-17T01:41:16.614Z,10.50
2023-05-17T01:44:25.117Z,10.70
2023-05-17T01:47:02.048Z,11.10
2023-05-17T01:49:35.500Z,10.50
2023-05-17T01:52:14.105Z,10.60
2023-05-17T01:55:22.141Z,10.60
2023-05-17T01:57:54.334Z,10.60
2023-05-17T02:00:22.934Z,10.30
2023-05-17T02:02:50.970Z,10.60
2023-05-17T02:07:45.573Z,10.30
2023-05-17T02:10:12.943Z,10.30
2023-05-17T02:12:44.040Z,10.40
2023-05-17T02:15:12.078Z,10.40
2023-05-17T02:17:40.675Z,10.40
2023-05-17T02:20:09.621Z,10.40
2023-05-17T02:22:37.255Z,10.30
2023-05-17T02:25:04.503Z,10.40
2023-05-17T02:27:31.634Z,10.50
2023-05-17T02:30:01.905Z,10.20
2023-05-17T02:42:19.379Z,10.00
2023-05-17T02:44:48.462Z,10.10
2023-05-17T02:47:15.450Z,10.20
2023-05-17T02:49:42.846Z,10.20
2023-05-17T02:54:37.986Z,10.30
2023-05-17T02:57:05.867Z,10.20
2023-05-17T03:04:28.389Z,10.10
2023-05-17T03:06:56.048Z,10.20
2023-05-17T03:11:52.354Z,10.20
2023-05-17T03:14:23.934Z,10.10
2023-05-17T03:21:46.680Z,10.00
2023-05-17T03:24:14.076Z,10.20
2023-05-17T03:26:41.842Z,10.50
2023-05-17T03:34:08.108Z,10.00
2023-05-17T03:41:32.229Z,10.40
2023-05-17T03:44:00.182Z,9.80
2023-05-17T03:46:27.282Z,9.90
2023-05-17T03:51:22.557Z,9.60
2023-05-17T03:53:58.769Z,9.80
2023-05-17T04:01:23.131Z,9.90
2023-05-17T04:08:49.952Z,9.80
2023-05-17T04:18:47.687Z,9.90
2023-05-17T04:21:14.876Z,9.90
2023-05-17T04:23:42.086Z,10.30
2023-05-17T04:26:09.983Z,9.00
2023-05-17T04:28:39.270Z,9.70
2023-05-17T04:31:10.052Z,9.80
2023-05-17T04:33:38.331Z,10.00
2023-05-17T04:38:36.661Z,9.80
2023-05-17T04:41:06.620Z,9.70
2023-05-17T04:53:32.469Z,9.60
2023-05-17T05:01:00.375Z,9.60
2023-05-17T05:03:27.778Z,9.70
2023-05-17T05:10:52.607Z,9.60
2023-05-17T05:13:23.153Z,8.70
2023-05-17T05:18:19.146Z,9.60
2023-05-17T05:20:49.070Z,9.40
2023-05-17T05:30:44.160Z,9.60
2023-05-17T05:43:03.842Z,10.00
2023-05-17T05:48:04.274Z,9.60
2023-05-17T05:53:17.503Z,9.80
2023-05-17T05:58:17.945Z,9.80
2023-05-17T06:08:09.320Z,9.50
2023-05-17T06:22:54.493Z,9.80
2023-05-17T06:27:49.023Z,9.80
2023-05-17T06:32:43.544Z,10.40
2023-05-17T06:35:11.158Z,9.80
2023-05-17T06:37:39.251Z,8.70
2023-05-17T06:40:16.097Z,9.80
2023-05-17T06:42:46.959Z,10.80
2023-05-17T06:45:14.038Z,9.90
2023-05-17T06:47:41.355Z,9.70
2023-05-17T06:52:36.782Z,9.70
2023-05-17T06:57:31.814Z,10.90
2023-05-17T06:59:58.859Z,9.90
2023-05-17T07:09:56.767Z,9.90
2023-05-17T07:14:51.298Z,9.90
2023-05-17T07:22:13.423Z,9.60
2023-05-17T07:24:40.412Z,9.90
2023-05-17T07:29:34.878Z,9.90
2023-05-17T07:32:01.941Z,10.10
2023-05-17T07:49:18.201Z,9.90
2023-05-17T07:54:29.973Z,10.40
2023-05-17T08:06:48.446Z,11.10
2023-05-17T08:09:16.587Z,10.40
2023-05-17T08:11:46.564Z,10.20
2023-05-17T08:14:15.567Z,10.30
2023-05-17T08:16:46.846Z,10.40
2023-05-17T08:21:45.238Z,10.60
2023-05-17T08:24:13.016Z,10.30
2023-05-17T08:29:07.526Z,10.40
2023-05-17T08:36:30.502Z,10.50
2023-05-17T08:38:57.653Z,10.50
2023-05-17T08:41:24.598Z,9.20
2023-05-17T08:43:52.980Z,10.50
2023-05-17T08:46:21.962Z,10.50
2023-05-17T08:48:53.544Z,10.50
2023-05-17T08:51:22.122Z,10.50
2023-05-17T09:06:24.394Z,10.70
2023-05-17T09:08:55.418Z,10.00
2023-05-17T09:11:28.526Z,10.80
2023-05-17T09:14:01.095Z,11.50
2023-05-17T09:16:30.194Z,10.70
2023-05-17T09:18:58.603Z,10.70
2023-05-17T09:21:27.609Z,10.80
2023-05-17T09:24:05.682Z,11.40
2023-05-17T09:26:40.306Z,10.80
2023-05-17T09:29:15.781Z,10.80
2023-05-17T09:31:43.680Z,10.90
2023-05-17T09:36:43.568Z,10.90
2023-05-17T09:39:13.633Z,11.00
2023-05-17T09:41:49.904Z,10.90
2023-05-17T09:46:48.149Z,11.20
2023-05-17T09:49:18.626Z,11.30
2023-05-17T09:51:48.739Z,11.30
2023-05-17T09:54:17.622Z,11.20
2023-05-17T09:59:17.077Z,11.60
2023-05-17T10:01:46.149Z,11.20
2023-05-17T10:04:14.253Z,11.10
2023-05-17T10:06:49.579Z,11.70
2023-05-17T10:09:22.486Z,11.10
2023-05-17T10:11:52.733Z,11.60
2023-05-17T10:14:27.789Z,11.50
2023-05-17T10:16:56.281Z,11.40
2023-05-17T10:19:25.393Z,11.20
2023-05-17T10:21:54.667Z,11.30
2023-05-17T10:26:52.810Z,11.50
2023-05-17T10:31:51.221Z,11.20
2023-05-17T10:34:20.017Z,11.40
2023-05-17T10:36:49.575Z,11.30
2023-05-17T10:39:16.891Z,11.40
2023-05-17T10:41:46.893Z,11.30
2023-05-17T10:46:58.528Z,11.50
2023-05-17T10:49:33.448Z,11.50
2023-05-17T10:52:18.968Z,11.60
2023-05-17T10:54:49.505Z,11.50
2023-05-17T10:57:22.238Z,11.70
2023-05-17T11:00:01.604Z,11.70
2023-05-17T11:02:29.244Z,11.80
2023-05-17T11:07:29.655Z,11.40
2023-05-17T11:10:14.310Z,11.60
2023-05-17T11:12:49.412Z,11.80
2023-05-17T11:15:17.685Z,11.60
2023-05-17T11:17:44.579Z,11.70
2023-05-17T11:20:32.921Z,11.60
2023-05-17T11:23:12.739Z,12.20
2023-05-17T11:25:40.755Z,11.60
2023-05-17T11:28:22.474Z,11.70
2023-05-17T11:30:54.042Z,11.60
2023-05-17T11:33:38.381Z,11.70
2023-05-17T11:36:15.393Z,11.30
2023-05-17T11:41:26.976Z,11.80
2023-05-17T11:43:55.333Z,11.80
2023-05-17T11:46:24.218Z,11.90
2023-05-17T11:48:53.187Z,11.80
2023-05-17T11:53:55.464Z,11.90
2023-05-17T11:56:35.711Z,11.90
2023-05-17T12:01:46.041Z,13.20
2023-05-17T12:04:13.354Z,12.10
2023-05-17T12:06:41.360Z,12.00
2023-05-17T12:11:39.508Z,12.10
2023-05-17T12:14:07.315Z,12.10
2023-05-17T12:16:40.816Z,12.10
2023-05-17T12:19:21.182Z,12.20
2023-05-17T12:26:45.983Z,12.10
2023-05-17T12:29:14.802Z,12.20
2023-05-17T12:31:50.384Z,12.10
2023-05-17T12:34:18.623Z,12.20
2023-05-17T12:36:46.597Z,12.10
2023-05-17T12:39:14.509Z,12.20
2023-05-17T12:41:42.891Z,12.20
2023-05-17T12:44:15.524Z,12.10
2023-05-17T12:46:44.053Z,12.20
2023-05-17T12:49:12.354Z,12.60
2023-05-17T12:51:46.886Z,11.80
2023-05-17T12:54:25.366Z,12.40
2023-05-17T13:01:51.548Z,12.40
2023-05-17T13:04:20.904Z,12.40
2023-05-17T13:06:51.610Z,12.40
2023-05-17T13:09:21.833Z,12.50
2023-05-17T13:11:56.070Z,12.40
2023-05-17T13:14:44.502Z,12.50
2023-05-17T13:17:27.696Z,12.50
2023-05-17T13:19:57.791Z,12.60
2023-05-17T13:22:25.449Z,12.50
2023-05-17T13:29:47.587Z,12.50
2023-05-17T13:32:14.570Z,12.40
2023-05-17T13:51:58.219Z,12.60
2023-05-17T13:56:53.740Z,12.70
2023-05-17T13:59:20.866Z,12.60
2023-05-17T14:01:47.983Z,12.80
2023-05-17T14:04:15.041Z,13.00
2023-05-17T14:06:42.615Z,13.00
2023-05-17T14:14:05.613Z,12.70
2023-05-17T14:19:04.259Z,12.90
2023-05-17T14:28:55.037Z,12.90
2023-05-17T14:48:35.015Z,12.60
2023-05-17T14:51:03.469Z,12.70
2023-05-17T14:55:58.957Z,12.40
2023-05-17T14:58:26.385Z,12.80
2023-05-17T15:01:04.985Z,11.90
2023-05-17T15:03:35.044Z,12.70
2023-05-17T15:08:36.122Z,12.80
2023-05-17T15:11:03.393Z,12.80
2023-05-17T15:20:53.439Z,12.40
2023-05-17T15:23:20.981Z,12.90
2023-05-17T15:25:48.138Z,12.90
2023-05-17T15:30:43.101Z,12.80
2023-05-17T15:35:44.833Z,13.00
2023-05-17T15:40:39.669Z,13.70
2023-05-17T15:43:06.729Z,13.10
2023-05-17T15:45:34.037Z,13.10
2023-05-17T15:50:29.496Z,13.20
2023-05-17T15:52:56.528Z,13.20
2023-05-17T15:55:23.813Z,13.30
2023-05-17T15:57:50.978Z,12.40
2023-05-17T16:00:18.288Z,13.40
2023-05-17T16:02:45.365Z,13.50
2023-05-17T16:05:12.762Z,13.50
2023-05-17T16:07:39.866Z,13.40
2023-05-17T16:10:07.953Z,13.20
2023-05-17T16:12:35.105Z,13.50
2023-05-17T16:15:02.223Z,14.20
2023-05-17T16:17:30.477Z,13.50
2023-05-17T16:19:57.799Z,13.40
2023-05-17T16:22:25.252Z,13.20
2023-05-17T16:24:57.049Z,13.40
2023-05-17T16:29:51.622Z,13.30
2023-05-17T16:32:18.770Z,13.80
2023-05-17T16:34:45.872Z,13.30
2023-05-17T16:37:13.259Z,13.30
2023-05-17T16:39:40.538Z,13.30
2023-05-17T16:42:07.628Z,13.10
2023-05-17T16:47:03.843Z,13.30
2023-05-17T16:49:31.077Z,13.20
2023-05-17T16:51:58.170Z,13.50
2023-05-17T16:54:28.177Z,13.60
2023-05-17T16:56:58.084Z,13.40
2023-05-17T16:59:25.164Z,13.40
2023-05-17T17:01:52.286Z,13.40
2023-05-17T17:04:19.531Z,13.50
2023-05-17T17:09:14.319Z,13.50
2023-05-17T17:14:09.089Z,13.10
2023-05-17T17:16:36.292Z,13.30
2023-05-17T17:19:06.526Z,13.30
2023-05-17T17:24:07.627Z,13.30
2023-05-17T17:26:35.547Z,12.90
2023-05-17T17:29:08.211Z,13.30
2023-05-17T17:31:35.565Z,12.40
2023-05-17T17:34:02.820Z,13.20
2023-05-17T17:38:58.205Z,13.20
2023-05-17T17:43:53.214Z,13.10
2023-05-17T17:46:20.449Z,13.20
2023-05-17T17:48:47.453Z,13.20
2023-05-17T17:53:44.833Z,13.10
2023-05-17T17:56:12.072Z,13.30
2023-05-17T17:58:39.180Z,13.20
2023-05-17T18:01:06.319Z,12.70
2023-05-17T18:03:33.688Z,13.10
2023-05-17T18:08:28.259Z,13.20
2023-05-17T18:13:23.777Z,13.20
2023-05-17T18:15:51.235Z,13.20
2023-05-17T18:18:18.273Z,13.10
2023-05-17T18:20:45.545Z,12.90
2023-05-17T18:23:12.592Z,13.10
2023-05-17T18:25:39.622Z,13.10
2023-05-17T18:28:08.734Z,12.90
2023-05-17T18:38:01.615Z,13.00
2023-05-17T18:40:28.958Z,13.00
2023-05-17T18:50:33.931Z,13.50
2023-05-17T18:53:01.058Z,13.80
2023-05-17T19:00:26.428Z,12.60
2023-05-17T19:02:53.698Z,12.80
2023-05-17T19:05:25.128Z,12.70
2023-05-17T19:07:55.388Z,12.80
2023-05-17T19:15:18.013Z,12.80
2023-05-17T19:17:48.099Z,12.70
2023-05-17T19:20:15.365Z,12.70
2023-05-17T19:22:45.640Z,12.60
2023-05-17T19:37:52.009Z,12.60
2023-05-17T19:40:22.082Z,12.50
2023-05-17T19:42:49.583Z,12.90
2023-05-17T19:45:17.386Z,12.40
2023-05-17T19:50:12.334Z,12.80
2023-05-17T19:52:39.964Z,12.30
2023-05-17T19:55:07.446Z,12.30
2023-05-17T19:57:34.486Z,12.30
2023-05-17T20:09:57.713Z,13.10
2023-05-17T20:14:54.112Z,12.20
2023-05-17T20:17:21.514Z,12.50
2023-05-17T20:19:48.722Z,12.40
2023-05-17T20:22:15.867Z,13.70
2023-05-17T20:27:12.944Z,12.10
2023-05-17T20:32:08.722Z,12.30
2023-05-17T20:37:04.086Z,12.10
2023-05-17T20:44:28.499Z,12.00
2023-05-17T20:46:56.945Z,12.70
2023-05-17T20:49:24.061Z,12.10
2023-05-17T20:51:51.171Z,12.00
2023-05-17T20:54:18.401Z,12.00
2023-05-17T20:59:12.936Z,12.00
2023-05-17T21:09:03.968Z,11.80
2023-05-17T21:16:27.202Z,11.80
2023-05-17T21:21:21.824Z,11.80
2023-05-17T21:23:49.194Z,11.90
2023-05-17T21:26:16.313Z,11.70
2023-05-17T21:31:10.950Z,11.70
2023-05-17T21:33:38.124Z,11.70
2023-05-17T21:36:05.384Z,11.80
2023-05-17T21:38:32.406Z,12.50
2023-05-17T21:40:59.517Z,11.70
2023-05-17T21:43:26.602Z,11.70
2023-05-17T21:45:54.135Z,11.70
2023-05-17T21:48:21.193Z,11.60
2023-05-17T22:00:57.139Z,11.50
2023-05-17T22:10:47.567Z,11.40
2023-05-17T22:13:18.304Z,11.40
2023-05-17T22:15:45.542Z,11.40
2023-05-17T22:23:08.444Z,11.40
2023-05-17T22:28:03.645Z,10.90
2023-05-17T22:32:59.130Z,11.30
2023-05-17T22:35:26.225Z,11.20
2023-05-17T22:45:18.607Z,11.80
2023-05-17T22:50:15.723Z,11.00
2023-05-17T22:52:43.264Z,11.10
2023-05-17T22:55:11.178Z,11.00
2023-05-17T23:00:09.212Z,10.90
2023-05-17T23:02:36.595Z,11.10
2023-05-17T23:05:04.004Z,11.10
2023-05-17T23:10:08.330Z,11.10
2023-05-17T23:12:37.154Z,11.10
2023-05-17T23:15:06.127Z,11.00
2023-05-17T23:20:09.826Z,11.50
2023-05-17T23:22:37.891Z,9.90
2023-05-17T23:25:06.381Z,10.80
2023-05-17T23:27:35.699Z,10.90
2023-05-17T23:30:04.716Z,10.90
2023-05-17T23:35:06.132Z,10.80
2023-05-17T23:37:34.047Z,10.70
2023-05-17T23:40:01.730Z,11.20
2023-05-17T23:42:31.985Z,10.80
2023-05-17T23:45:00.635Z,10.80
2023-05-17T23:47:28.193Z,10.80
2023-05-17T23:49:56.444Z,12.10
2023-05-17T23:52:24.521Z,10.80
2023-05-17T23:57:19.374Z,10.70
